Flight Track Log - Related Links

Times and Time Zones

All times are in EDT time to prevent confusion due to time zone crossing. See the AWE1092 flight status page for this flight to view local times or setup timezone preferences in your user account.

Time Position Orientation Groundspeed Altitude Reporting Facility
EDT Latitude Longitude Course Direction KTS MPH feet Rate Location/Type
Tue 10:00:32 AM 39.8667 -75.2667 201° Southwest 152 175 700  Level Philadelphia TRACON
Tue 10:02:00 AM 39.5675 -75.3032 189° South  Level FlightAware Approximate
Tue 10:02:08 AM 39.7986 -75.3403 220° Southwest 173 199 3,500  Level Washington Center
Tue 10:03:00 AM 39.4649 -75.3284 194° South  Level FlightAware Approximate
Tue 10:03:08 AM 39.7406 -75.3919 214° Southwest 221 254 6,300  Level Washington Center
Tue 10:04:00 AM 39.3611 -75.3414 185° South  Level FlightAware Approximate
Tue 10:04:07 AM 39.6614 -75.4028 186° South 261 300 9,600  Level Washington Center
Tue 10:05:00 AM 39.2587 -75.3623 201° Southwest  Level FlightAware Approximate
Tue 10:05:08 AM 39.5697 -75.3978 178° South 294 338 11,500  Level Washington Center
Tue 10:06:06 AM 39.4717 -75.3900 176° South 333 383 13,000 1,008 Climbing Washington Center
Tue 10:07:07 AM 39.3694 -75.3875 179° South 355 409 13,500 1,289 Climbing Washington Center
Tue 10:08:07 AM 39.2758 -75.3825 178° South 366 421 15,600 1,250 Climbing Washington Center
Tue 10:09:07 AM 39.1694 -75.3881 182° South 371 427 16,000 248 Climbing Washington Center
Tue 10:10:08 AM 39.0736 -75.4017 186° South 369 425 16,100 966 Climbing Washington Center
Tue 10:11:05 AM 38.9778 -75.4153 186° South 362 417 17,900 2,067 Climbing Washington Center
Tue 10:12:07 AM 38.8797 -75.4342 189° South 357 411 20,200 1,967 Climbing Washington Center
Tue 10:13:07 AM 38.7756 -75.4478 186° South 368 423 21,900 1,736 Climbing Washington Center
Tue 10:14:08 AM 38.6650 -75.4667 188° South 383 441 23,700 1,815 Climbing Washington Center
Tue 10:15:06 AM 38.5506 -75.4828 186° South 409 471 25,500 1,160 Climbing Washington Center
Tue 10:16:07 AM 38.4336 -75.4989 186° South 422 486 26,000 246 Climbing Washington Center
Tue 10:17:08 AM 38.3211 -75.5361 195° South 422 486 26,000  Level Washington Center
Tue 10:18:05 AM 38.2272 -75.6181 214° Southwest 416 479 26,000 305 Level Washington Center
Tue 10:19:06 AM 38.1356 -75.7000 215° Southwest 409 471 26,600 992 Climbing Washington Center
Tue 10:20:06 AM 38.0375 -75.8053 220° Southwest 418 481 28,000 694 Climbing Washington Center
Tue 10:21:07 AM 37.9392 -75.8814 211° Southwest 418 481 28,000  Level Washington Center
Tue 10:22:07 AM 37.8494 -75.9653 216° Southwest 418 481 28,000  Level Washington Center
Tue 10:23:08 AM 37.7594 -76.0514 217° Southwest 418 481 28,000  Level Washington Center
Tue 10:24:06 AM 37.6650 -76.1400 217° Southwest 418 481 28,000 -504 Level Washington Center
Tue 10:25:07 AM 37.5689 -76.2181 213° Southwest 418 481 27,000 -950 Descending Washington Center
Tue 10:26:06 AM 37.4767 -76.2983 215° Southwest 413 475 26,100 -908 Descending Washington Center
Tue 10:27:06 AM 37.3864 -76.3839 217° Southwest 408 470 25,200 -900 Descending Washington Center
Tue 10:28:06 AM 37.2961 -76.4611 214° Southwest 403 464 24,300 -595 Descending Washington Center
Tue 10:29:07 AM 37.2203 -76.5542 224° Southwest 397 457 24,000 -550 Descending Washington Center
Tue 10:30:06 AM 37.1547 -76.6603 232° Southwest 387 445 23,200 -504 Descending Washington Center
Tue 10:31:06 AM 37.0892 -76.7608 231° Southwest 387 445 23,000 -98 Descending Washington Center
Tue 10:32:08 AM 37.0214 -76.8667 231° Southwest 387 445 23,000  Level Washington Center
Tue 10:33:07 AM 36.9642 -76.9567 232° Southwest 387 445 23,000  Level Washington Center
Tue 10:34:07 AM 36.8897 -77.0722 231° Southwest 382 440 23,000  Level Washington Center
Tue 10:35:05 AM 36.8236 -77.1747 231° Southwest 387 445 23,000  Level Washington Center
Tue 10:36:06 AM 36.7578 -77.2744 231° Southwest 387 445 23,000  Level Washington Center
Tue 10:37:07 AM 36.6914 -77.3767 231° Southwest 387 445 23,000 -148 Level Washington Center
Tue 10:38:08 AM 36.6231 -77.4811 231° Southwest 387 445 22,700 -1,041 Descending Washington Center
Tue 10:39:08 AM 36.5589 -77.5778 230° Southwest 387 445 20,900 -1,750 Descending Washington Center
Tue 10:40:08 AM 36.4989 -77.6719 232° Southwest 376 433 19,200 -1,881 Descending Washington Center
Tue 10:41:06 AM 36.4347 -77.7683 230° Southwest 365 420 17,200 -1,800 Descending Washington Center
Tue 10:42:08 AM 36.3744 -77.8622 231° Southwest 360 414 15,600 -1,650 Descending Washington Center
Tue 10:43:06 AM 36.3186 -77.9508 232° Southwest 355 409 13,900 -1,670 Descending Washington Center
Tue 10:43:45 AM 36.2756 -78.0086 227° Southwest 329 379 12,900 -1,528 Descending Washington Center
Tue 10:44:52 AM 36.2133 -78.1019 230° Southwest 325 374 11,200 -1,426 Descending Washington Center
Tue 10:45:47 AM 36.1656 -78.1803 233° Southwest 314 361 10,000 -537 Descending Washington Center
Tue 10:47:06 AM 36.1342 -78.2847 250° West 267 307 10,000  Level Washington Center
Tue 10:47:48 AM 36.1244 -78.3436 258° West 228 262 10,000 -291 Level Washington Center
Tue 10:48:49 AM 36.1142 -78.4228 261° West 211 243 9,500 -768 Descending Washington Center
Tue 10:49:53 AM 36.1211 -78.4847 278° West 176 203 8,400 -1,328 Descending Washington Center
Tue 10:50:51 AM 36.0908 -78.5325 232° Southwest 185 213 6,800 -1,593 Descending Washington Center
Tue 10:51:46 AM 36.0583 -78.5725 225° Southwest 181 208 5,400 -1,448 Descending Washington Center
Tue 10:52:47 AM 36.0283 -78.6125 227° Southwest 159 183 4,000 -1,039 Descending Washington Center
Tue 10:53:53 AM 36.0003 -78.6497 227° Southwest 136 157 3,200 -727 Descending Washington Center

Login

Don't have an account? Register now (free) for customized features, flight alerts, and more!